createdAt,value
2018-06-12T00:00:52.814Z,21.00
2018-06-12T00:03:21.910Z,20.90
2018-06-12T00:10:50.556Z,20.90
2018-06-12T00:13:18.914Z,20.80
2018-06-12T00:15:47.382Z,20.80
2018-06-12T00:18:15.873Z,20.80
2018-06-12T00:20:44.133Z,20.80
2018-06-12T00:23:14.061Z,20.80
2018-06-12T00:25:42.391Z,20.80
2018-06-12T00:28:10.734Z,20.70
2018-06-12T00:30:39.112Z,20.60
2018-06-12T00:33:07.433Z,20.60
2018-06-12T00:35:35.715Z,20.60
2018-06-12T00:38:05.864Z,20.50
2018-06-12T00:40:34.704Z,20.50
2018-06-12T00:43:03.075Z,20.50
2018-06-12T00:45:31.620Z,20.50
2018-06-12T00:48:00.157Z,20.50
2018-06-12T00:50:29.620Z,20.50
2018-06-12T00:52:58.173Z,20.60
2018-06-12T00:55:26.715Z,20.50
2018-06-12T00:57:55.299Z,20.50
2018-06-12T01:00:24.655Z,20.50
2018-06-12T01:02:53.555Z,20.50
2018-06-12T01:05:22.191Z,20.50
2018-06-12T01:07:50.735Z,20.50
2018-06-12T01:10:19.715Z,20.50
2018-06-12T01:12:50.410Z,20.40
2018-06-12T01:15:18.945Z,20.40
2018-06-12T01:17:47.547Z,20.40
2018-06-12T01:20:16.160Z,20.40
2018-06-12T01:22:45.491Z,20.40
2018-06-12T01:25:14.315Z,20.40
2018-06-12T01:27:42.861Z,20.40
2018-06-12T01:30:11.635Z,20.40
2018-06-12T01:32:40.941Z,20.40
2018-06-12T01:35:09.520Z,20.40
2018-06-12T01:37:38.097Z,20.30
2018-06-12T01:40:06.614Z,20.30
2018-06-12T01:42:35.185Z,20.30
2018-06-12T01:45:03.761Z,20.30
2018-06-12T01:47:32.303Z,20.20
2018-06-12T01:50:01.706Z,20.20
2018-06-12T01:52:30.302Z,20.20
2018-06-12T01:54:58.834Z,20.20
2018-06-12T01:57:27.387Z,20.10
2018-06-12T01:59:55.939Z,20.20
2018-06-12T02:02:24.455Z,20.10
2018-06-12T02:04:53.851Z,20.10
2018-06-12T02:07:23.381Z,20.10
2018-06-12T02:09:51.984Z,20.10
2018-06-12T02:12:20.557Z,20.10
2018-06-12T02:14:49.769Z,20.00
2018-06-12T02:17:18.247Z,20.00
2018-06-12T02:19:46.861Z,20.00
2018-06-12T02:22:15.419Z,20.00
2018-06-12T02:24:43.994Z,20.00
2018-06-12T02:29:41.159Z,19.90
2018-06-12T02:32:10.235Z,19.90
2018-06-12T02:34:38.739Z,19.80
2018-06-12T02:37:07.527Z,19.80
2018-06-12T02:39:36.463Z,19.80
2018-06-12T02:42:04.986Z,19.80
2018-06-12T02:44:34.536Z,19.70
2018-06-12T02:47:03.085Z,19.70
2018-06-12T02:49:31.634Z,19.70
2018-06-12T02:52:00.175Z,19.80
2018-06-12T02:54:28.775Z,19.70
2018-06-12T02:56:57.319Z,19.70
2018-06-12T02:59:26.519Z,19.80
2018-06-12T03:01:59.212Z,19.80
2018-06-12T03:04:28.187Z,19.80
2018-06-12T03:06:57.209Z,19.80
2018-06-12T03:09:25.777Z,19.80
2018-06-12T03:11:54.395Z,19.80
2018-06-12T03:14:23.256Z,19.80
2018-06-12T03:16:52.426Z,19.80
2018-06-12T03:19:21.680Z,19.80
2018-06-12T03:21:50.254Z,19.80
2018-06-12T03:24:18.891Z,19.80
2018-06-12T03:26:48.868Z,19.80
2018-06-12T03:29:17.481Z,19.80
2018-06-12T03:31:46.284Z,19.80
2018-06-12T03:34:15.455Z,19.80
2018-06-12T03:36:44.644Z,19.80
2018-06-12T03:39:13.406Z,19.70
2018-06-12T03:41:41.967Z,19.70
2018-06-12T03:44:10.970Z,19.70
2018-06-12T03:46:39.898Z,19.70
2018-06-12T03:49:08.408Z,19.60
2018-06-12T03:51:37.960Z,19.60
2018-06-12T03:54:06.881Z,19.60
2018-06-12T03:56:35.402Z,19.60
2018-06-12T03:59:03.966Z,19.50
2018-06-12T04:01:32.567Z,19.50
2018-06-12T04:04:01.098Z,19.50
2018-06-12T04:06:29.703Z,19.50
2018-06-12T04:08:58.515Z,19.50
2018-06-12T04:11:28.074Z,19.50
2018-06-12T04:13:57.285Z,19.60
2018-06-12T04:16:26.176Z,19.50
2018-06-12T04:18:56.602Z,19.60
2018-06-12T04:21:25.128Z,19.60
2018-06-12T04:23:53.614Z,19.60
2018-06-12T04:26:22.956Z,19.60
2018-06-12T04:28:51.490Z,19.60
2018-06-12T04:31:20.029Z,19.60
2018-06-12T04:33:49.017Z,19.50
2018-06-12T04:36:17.742Z,19.50
2018-06-12T04:38:46.602Z,19.50
2018-06-12T04:41:15.229Z,19.50
2018-06-12T04:43:43.726Z,19.60
2018-06-12T04:46:12.237Z,19.50
2018-06-12T04:48:40.792Z,19.50
2018-06-12T04:51:09.312Z,19.50
2018-06-12T04:53:37.843Z,19.50
2018-06-12T04:56:06.492Z,19.50
2018-06-12T04:58:35.049Z,19.50
2018-06-12T05:01:03.671Z,19.50
2018-06-12T05:03:32.222Z,19.50
2018-06-12T05:06:02.243Z,19.50
2018-06-12T05:08:30.846Z,19.60
2018-06-12T05:10:59.841Z,19.50
2018-06-12T05:13:28.751Z,19.40
2018-06-12T05:15:57.847Z,19.20
2018-06-12T05:18:26.457Z,19.20
2018-06-12T05:20:55.040Z,19.20
2018-06-12T05:23:23.591Z,19.10
2018-06-12T05:25:52.860Z,19.10
2018-06-12T05:28:22.302Z,19.10
2018-06-12T05:30:51.118Z,19.10
2018-06-12T05:33:19.647Z,19.20
2018-06-12T05:35:48.220Z,19.20
2018-06-12T05:40:46.114Z,19.20
2018-06-12T05:43:14.647Z,19.20
2018-06-12T05:45:43.222Z,19.10
2018-06-12T05:48:11.708Z,19.00
2018-06-12T05:50:40.580Z,18.90
2018-06-12T05:53:09.045Z,18.90
2018-06-12T05:55:37.563Z,18.90
2018-06-12T05:58:06.198Z,18.90
2018-06-12T06:00:34.824Z,18.90
2018-06-12T06:03:03.417Z,18.90
2018-06-12T06:05:32.725Z,18.90
2018-06-12T06:08:01.681Z,18.90
2018-06-12T06:10:30.183Z,18.90
2018-06-12T06:12:58.706Z,18.90
2018-06-12T06:15:27.647Z,19.00
2018-06-12T06:17:57.543Z,19.00
2018-06-12T06:20:26.139Z,19.00
2018-06-12T06:22:54.666Z,19.10
2018-06-12T06:25:23.202Z,19.20
2018-06-12T06:27:51.893Z,19.30
2018-06-12T06:30:20.410Z,19.30
2018-06-12T06:32:48.978Z,19.40
2018-06-12T06:35:17.610Z,19.50
2018-06-12T06:37:46.122Z,19.60
2018-06-12T06:40:14.674Z,19.60
2018-06-12T06:42:43.379Z,19.70
2018-06-12T06:45:11.853Z,19.80
2018-06-12T06:47:40.874Z,19.90
2018-06-12T06:50:10.163Z,19.90
2018-06-12T06:52:39.121Z,19.90
2018-06-12T06:55:07.940Z,20.00
2018-06-12T06:57:36.816Z,19.90
2018-06-12T07:00:05.540Z,19.90
2018-06-12T07:02:34.382Z,19.80
2018-06-12T07:05:02.890Z,19.90
2018-06-12T07:07:31.450Z,19.90
2018-06-12T07:10:00.026Z,20.00
2018-06-12T07:12:28.665Z,20.10
2018-06-12T07:14:57.249Z,20.20
2018-06-12T07:17:25.765Z,20.30
2018-06-12T07:19:54.310Z,20.40
2018-06-12T07:22:22.945Z,20.30
2018-06-12T07:24:51.485Z,20.20
2018-06-12T07:30:02.288Z,20.40
2018-06-12T07:32:30.757Z,20.50
2018-06-12T07:34:59.951Z,20.60
2018-06-12T07:37:28.500Z,20.50
2018-06-12T07:39:57.720Z,20.60
2018-06-12T07:42:26.267Z,20.70
2018-06-12T07:44:55.047Z,20.80
2018-06-12T07:47:23.599Z,21.00
2018-06-12T07:49:52.128Z,21.00
2018-06-12T07:52:20.636Z,21.00
2018-06-12T07:54:49.164Z,21.10
2018-06-12T07:57:17.655Z,21.30
2018-06-12T07:59:46.230Z,21.70
2018-06-12T08:02:14.803Z,22.10
2018-06-12T08:04:43.418Z,22.20
2018-06-12T08:07:11.930Z,22.20
2018-06-12T08:09:40.458Z,22.30
2018-06-12T08:12:09.333Z,22.30
2018-06-12T08:14:37.823Z,22.40
2018-06-12T08:17:06.384Z,22.40
2018-06-12T08:19:34.972Z,22.30
2018-06-12T08:22:03.490Z,22.50
2018-06-12T08:24:31.998Z,22.60
2018-06-12T08:27:00.535Z,22.70
2018-06-12T08:29:29.049Z,22.80
2018-06-12T08:31:57.587Z,22.90
2018-06-12T08:34:26.101Z,23.00
2018-06-12T08:36:54.631Z,23.10
2018-06-12T08:39:23.163Z,23.10
2018-06-12T08:41:51.751Z,23.10
2018-06-12T08:44:20.286Z,23.10
2018-06-12T08:46:48.802Z,23.30
2018-06-12T08:49:17.330Z,23.20
2018-06-12T08:51:45.879Z,23.40
2018-06-12T08:54:14.402Z,23.50
2018-06-12T08:56:42.893Z,23.60
2018-06-12T08:59:11.406Z,23.80
2018-06-12T09:01:39.894Z,23.80
2018-06-12T09:04:08.414Z,23.80
2018-06-12T09:06:36.939Z,23.90
2018-06-12T09:09:06.874Z,23.90
2018-06-12T09:11:35.394Z,23.90
2018-06-12T09:14:03.921Z,23.80
2018-06-12T09:16:32.482Z,23.80
2018-06-12T09:19:01.116Z,23.70
2018-06-12T09:21:29.653Z,23.70
2018-06-12T09:23:58.199Z,23.70
2018-06-12T09:26:26.675Z,23.70
2018-06-12T09:28:55.205Z,23.60
2018-06-12T09:31:23.750Z,23.60
2018-06-12T09:33:52.288Z,23.60
2018-06-12T09:36:26.099Z,23.50
2018-06-12T09:38:54.650Z,23.30
2018-06-12T09:41:23.178Z,23.20
2018-06-12T09:43:51.835Z,23.20
2018-06-12T09:46:20.402Z,23.10
2018-06-12T09:48:48.891Z,23.00
2018-06-12T09:51:17.381Z,22.90
2018-06-12T09:53:45.894Z,22.80
2018-06-12T09:56:14.418Z,22.80
2018-06-12T09:58:42.935Z,22.70
2018-06-12T10:01:16.784Z,22.60
2018-06-12T10:03:45.318Z,22.60
2018-06-12T10:06:14.088Z,22.50
2018-06-12T10:08:42.623Z,22.50
2018-06-12T10:11:11.162Z,22.40
2018-06-12T10:13:39.653Z,22.40
2018-06-12T10:16:08.169Z,22.40
2018-06-12T10:18:36.694Z,22.40
2018-06-12T10:21:06.209Z,22.40
2018-06-12T10:23:35.347Z,22.40
2018-06-12T10:26:04.043Z,22.40
2018-06-12T10:28:32.639Z,22.40
2018-06-12T10:31:01.213Z,22.40
2018-06-12T10:33:29.820Z,22.40
2018-06-12T10:35:58.425Z,22.40
2018-06-12T10:38:27.095Z,22.40
2018-06-12T10:40:55.679Z,22.50
2018-06-12T10:43:24.241Z,22.70
2018-06-12T10:45:52.907Z,22.60
2018-06-12T10:48:21.504Z,22.50
2018-06-12T10:50:50.051Z,22.00
2018-06-12T10:53:18.563Z,21.70
2018-06-12T10:55:47.063Z,21.30
2018-06-12T10:58:15.625Z,21.00
2018-06-12T11:00:44.212Z,20.70
2018-06-12T11:03:12.735Z,20.50
2018-06-12T11:05:41.285Z,20.50
2018-06-12T11:08:09.796Z,20.40
2018-06-12T11:10:38.379Z,20.20
2018-06-12T11:13:07.046Z,20.00
2018-06-12T11:15:35.547Z,19.90
2018-06-12T11:18:04.090Z,19.90
2018-06-12T11:20:32.657Z,19.90
2018-06-12T11:23:01.781Z,19.80
2018-06-12T11:25:30.501Z,19.90
2018-06-12T11:27:59.028Z,19.90
2018-06-12T11:30:27.610Z,19.80
2018-06-12T11:32:56.203Z,19.60
2018-06-12T11:35:24.831Z,19.70
2018-06-12T11:37:53.543Z,19.80
2018-06-12T11:40:22.209Z,19.90
2018-06-12T11:42:50.958Z,19.90
2018-06-12T11:45:19.573Z,20.10
2018-06-12T11:47:48.462Z,20.10
2018-06-12T11:50:17.133Z,20.10
2018-06-12T11:52:45.777Z,20.40
2018-06-12T11:55:14.408Z,20.30
2018-06-12T11:57:43.025Z,20.20
2018-06-12T12:00:11.813Z,20.10
2018-06-12T12:02:40.474Z,20.10
2018-06-12T12:05:09.053Z,20.00
2018-06-12T12:07:37.775Z,20.10
2018-06-12T12:10:06.397Z,19.90
2018-06-12T12:12:35.029Z,19.90
2018-06-12T12:15:03.681Z,19.90
2018-06-12T12:17:32.248Z,19.80
2018-06-12T12:20:01.057Z,19.80
2018-06-12T12:22:29.729Z,20.00
2018-06-12T12:24:58.221Z,20.00
2018-06-12T12:27:26.813Z,20.10
2018-06-12T12:29:55.412Z,20.10
2018-06-12T12:32:23.996Z,20.10
2018-06-12T12:34:52.531Z,20.30
2018-06-12T12:37:21.143Z,20.50
2018-06-12T12:39:49.768Z,20.60
2018-06-12T12:42:18.437Z,20.60
2018-06-12T12:44:46.977Z,20.70
2018-06-12T12:47:15.566Z,20.70
2018-06-12T12:49:44.228Z,20.70
2018-06-12T12:52:12.753Z,20.90
2018-06-12T12:54:41.342Z,20.80
2018-06-12T13:00:00.413Z,21.00
2018-06-12T13:02:28.946Z,21.00
2018-06-12T13:04:57.557Z,21.10
2018-06-12T13:07:26.145Z,21.10
2018-06-12T13:09:54.699Z,21.20
2018-06-12T13:12:24.433Z,21.30
2018-06-12T13:14:53.309Z,21.30
2018-06-12T13:17:21.869Z,21.60
2018-06-12T13:19:50.439Z,21.70
2018-06-12T13:22:19.838Z,21.70
2018-06-12T13:24:48.440Z,21.80
2018-06-12T13:27:17.297Z,21.90
2018-06-12T13:29:45.852Z,22.10
2018-06-12T13:32:14.460Z,22.20
2018-06-12T13:34:43.050Z,22.30
2018-06-12T13:37:11.609Z,22.40
2018-06-12T13:39:40.224Z,22.60
2018-06-12T13:42:08.761Z,22.90
2018-06-12T13:44:37.346Z,22.90
2018-06-12T13:47:05.943Z,23.00
2018-06-12T13:49:34.591Z,23.40
2018-06-12T13:52:03.174Z,23.60
2018-06-12T13:54:31.749Z,23.70
2018-06-12T13:57:00.295Z,23.70
2018-06-12T13:59:28.843Z,23.70
2018-06-12T14:01:57.308Z,24.00
2018-06-12T14:04:25.862Z,24.00
2018-06-12T14:06:54.448Z,23.70
2018-06-12T14:09:22.937Z,23.70
2018-06-12T14:11:51.518Z,23.90
2018-06-12T14:14:20.125Z,23.90
2018-06-12T14:16:48.698Z,24.10
2018-06-12T14:19:17.191Z,24.00
2018-06-12T14:21:45.784Z,23.90
2018-06-12T14:24:14.375Z,23.70
2018-06-12T14:26:42.992Z,23.70
2018-06-12T14:29:11.556Z,23.60
2018-06-12T14:31:40.079Z,23.60
2018-06-12T14:34:08.713Z,23.60
2018-06-12T14:36:37.258Z,23.60
2018-06-12T14:39:08.393Z,23.50
2018-06-12T14:41:37.860Z,23.50
2018-06-12T14:44:06.990Z,23.40
2018-06-12T14:46:36.400Z,23.40
2018-06-12T14:49:04.996Z,23.30
2018-06-12T14:51:33.816Z,23.30
2018-06-12T14:54:02.365Z,23.30
2018-06-12T14:56:30.969Z,23.10
2018-06-12T14:58:59.651Z,23.30
2018-06-12T15:01:28.171Z,23.50
2018-06-12T15:03:56.701Z,23.80
2018-06-12T15:06:25.279Z,23.70
2018-06-12T15:08:56.580Z,23.80
2018-06-12T15:11:25.228Z,23.80
2018-06-12T15:13:54.840Z,23.80
2018-06-12T15:16:23.780Z,23.80
2018-06-12T15:18:52.350Z,23.80
2018-06-12T15:21:20.863Z,23.90
2018-06-12T15:23:49.440Z,24.10
2018-06-12T15:26:19.019Z,24.20
2018-06-12T15:28:47.602Z,24.20
2018-06-12T15:31:16.228Z,24.10
2018-06-12T15:33:44.774Z,24.20
2018-06-12T15:36:13.285Z,24.10
2018-06-12T15:38:42.632Z,24.00
2018-06-12T15:41:11.184Z,23.80
2018-06-12T15:43:39.806Z,23.70
2018-06-12T15:46:08.396Z,23.80
2018-06-12T15:48:37.061Z,23.80
2018-06-12T15:51:05.594Z,23.90
2018-06-12T15:53:34.238Z,24.10
2018-06-12T15:56:02.880Z,24.20
2018-06-12T15:58:31.416Z,24.10
2018-06-12T16:01:00.125Z,24.10
2018-06-12T16:03:28.679Z,24.10
2018-06-12T16:05:57.529Z,24.00
2018-06-12T16:08:26.081Z,23.80
2018-06-12T16:10:57.790Z,23.80
2018-06-12T16:13:26.400Z,24.00
2018-06-12T16:15:55.037Z,24.10
2018-06-12T16:18:23.724Z,24.20
2018-06-12T16:20:52.338Z,24.20
2018-06-12T16:23:20.968Z,24.10
2018-06-12T16:25:49.512Z,24.10
2018-06-12T16:28:18.020Z,24.10
2018-06-12T16:30:46.699Z,24.20
2018-06-12T16:33:15.303Z,24.30
2018-06-12T16:35:44.047Z,24.20
2018-06-12T16:38:12.588Z,24.20
2018-06-12T16:40:41.162Z,24.20
2018-06-12T16:43:09.771Z,24.30
2018-06-12T16:45:38.365Z,24.30
2018-06-12T16:48:07.129Z,24.30
2018-06-12T16:50:35.672Z,24.30
2018-06-12T16:53:04.244Z,24.20
2018-06-12T16:55:32.848Z,24.10
2018-06-12T16:58:01.393Z,23.90
2018-06-12T17:00:29.950Z,23.90
2018-06-12T17:02:58.538Z,24.00
2018-06-12T17:05:27.103Z,24.10
2018-06-12T17:07:55.794Z,23.90
2018-06-12T17:10:24.341Z,24.00
2018-06-12T17:12:52.881Z,23.80
2018-06-12T17:15:21.532Z,23.80
2018-06-12T17:17:50.089Z,23.80
2018-06-12T17:20:18.620Z,23.70
2018-06-12T17:22:47.319Z,23.60
2018-06-12T17:25:15.918Z,23.70
2018-06-12T17:27:44.600Z,23.70
2018-06-12T17:30:13.175Z,23.60
2018-06-12T17:32:41.779Z,23.50
2018-06-12T17:35:10.428Z,23.50
2018-06-12T17:37:39.067Z,23.50
2018-06-12T17:40:07.678Z,23.40
2018-06-12T17:42:36.243Z,23.30
2018-06-12T17:45:04.841Z,23.30
2018-06-12T17:47:33.463Z,23.20
2018-06-12T17:50:02.761Z,23.20
2018-06-12T17:52:31.494Z,23.20
2018-06-12T17:57:28.632Z,23.10
2018-06-12T17:59:58.027Z,23.10
2018-06-12T18:02:27.033Z,23.00
2018-06-12T18:04:59.000Z,22.90
2018-06-12T18:07:28.035Z,22.90
2018-06-12T18:09:56.690Z,22.80
2018-06-12T18:12:25.302Z,22.80
2018-06-12T18:17:23.214Z,22.70
2018-06-12T18:19:56.987Z,22.60
2018-06-12T18:22:25.664Z,22.50
2018-06-12T18:24:54.528Z,22.40
2018-06-12T18:27:23.137Z,22.30
2018-06-12T18:29:51.692Z,22.30
2018-06-12T18:32:20.201Z,22.20
2018-06-12T18:34:48.632Z,22.20
2018-06-12T18:37:17.169Z,22.20
2018-06-12T18:39:45.802Z,22.00
2018-06-12T18:42:14.577Z,22.00
2018-06-12T18:44:43.097Z,21.80
2018-06-12T18:47:11.546Z,21.80
2018-06-12T18:49:40.049Z,21.70
2018-06-12T18:52:08.493Z,21.60
2018-06-12T18:54:36.959Z,21.50
2018-06-12T18:59:33.699Z,21.30
2018-06-12T19:02:02.215Z,21.30
2018-06-12T19:04:30.627Z,21.20
2018-06-12T19:06:59.143Z,21.10
2018-06-12T19:09:27.723Z,21.10
2018-06-12T19:11:56.186Z,21.00
2018-06-12T19:14:24.652Z,20.80
2018-06-12T19:16:53.217Z,20.70
2018-06-12T19:19:21.671Z,20.60
2018-06-12T19:24:18.341Z,20.50
2018-06-12T19:26:46.953Z,20.50
2018-06-12T19:29:15.486Z,20.50
2018-06-12T19:31:43.990Z,20.50
2018-06-12T19:34:12.453Z,20.40
2018-06-12T19:36:40.990Z,20.40
2018-06-12T19:39:09.425Z,20.40
2018-06-12T19:41:37.914Z,20.40
2018-06-12T19:44:06.458Z,20.40
2018-06-12T19:46:34.923Z,20.30
2018-06-12T19:49:03.366Z,20.30
2018-06-12T19:51:31.870Z,20.30
2018-06-12T19:54:00.289Z,20.20
2018-06-12T19:56:28.812Z,20.20
2018-06-12T19:58:57.887Z,20.20
2018-06-12T20:01:26.511Z,20.20
2018-06-12T20:03:55.026Z,20.10
2018-06-12T20:06:23.603Z,20.10
2018-06-12T20:08:52.211Z,20.10
2018-06-12T20:11:23.652Z,20.00
2018-06-12T20:13:52.208Z,20.00
2018-06-12T20:16:20.773Z,20.00
2018-06-12T20:18:49.330Z,19.90
2018-06-12T20:21:17.954Z,19.90
2018-06-12T20:23:47.047Z,19.90
2018-06-12T20:26:15.651Z,19.90
2018-06-12T20:28:44.315Z,19.90
2018-06-12T20:31:12.876Z,19.90
2018-06-12T20:33:41.545Z,19.80
2018-06-12T20:36:10.167Z,19.70
2018-06-12T20:38:38.782Z,19.60
2018-06-12T20:41:07.488Z,19.50
2018-06-12T20:43:36.080Z,19.40
2018-06-12T20:46:04.673Z,19.30
2018-06-12T20:48:33.250Z,19.20
2018-06-12T20:51:01.932Z,19.10
2018-06-12T20:53:30.818Z,19.10
2018-06-12T20:55:59.689Z,19.10
2018-06-12T20:58:28.380Z,19.00
2018-06-12T21:00:57.279Z,18.90
2018-06-12T21:03:25.855Z,18.90
2018-06-12T21:05:54.425Z,18.90
2018-06-12T21:08:23.025Z,18.80
2018-06-12T21:10:51.575Z,18.70
2018-06-12T21:13:20.596Z,18.70
2018-06-12T21:15:49.180Z,18.60
2018-06-12T21:18:17.850Z,18.60
2018-06-12T21:20:46.501Z,18.60
2018-06-12T21:23:15.031Z,18.40
2018-06-12T21:25:43.592Z,18.40
2018-06-12T21:28:12.179Z,18.30
2018-06-12T21:30:41.043Z,18.30
2018-06-12T21:33:10.009Z,18.30
2018-06-12T21:35:38.844Z,18.20
2018-06-12T21:38:07.771Z,18.20
2018-06-12T21:40:36.627Z,18.20
2018-06-12T21:43:05.210Z,18.00
2018-06-12T21:45:33.873Z,17.90
2018-06-12T21:48:02.514Z,17.80
2018-06-12T21:50:31.714Z,17.80
2018-06-12T21:53:00.853Z,17.70
2018-06-12T21:55:29.377Z,17.70
2018-06-12T21:57:57.994Z,17.70
2018-06-12T22:00:39.586Z,17.70
2018-06-12T22:03:08.095Z,17.60
2018-06-12T22:05:36.692Z,17.60
2018-06-12T22:08:05.288Z,17.50
2018-06-12T22:13:02.095Z,17.50
2018-06-12T22:15:30.591Z,17.40
2018-06-12T22:17:59.112Z,17.30
2018-06-12T22:20:27.750Z,17.30
2018-06-12T22:22:56.297Z,17.30
2018-06-12T22:25:24.817Z,17.20
2018-06-12T22:27:53.344Z,17.20
2018-06-12T22:30:21.845Z,17.20
2018-06-12T22:32:50.423Z,17.10
2018-06-12T22:35:18.896Z,17.20
2018-06-12T22:37:47.441Z,17.10
2018-06-12T22:40:16.113Z,17.10
2018-06-12T22:42:44.626Z,17.10
2018-06-12T22:45:13.470Z,17.10
2018-06-12T22:47:41.920Z,17.00
2018-06-12T22:50:10.495Z,17.00
2018-06-12T22:52:38.937Z,17.00
2018-06-12T22:55:07.518Z,17.00
2018-06-12T22:57:36.105Z,16.90
2018-06-12T23:00:04.640Z,16.90
2018-06-12T23:02:33.185Z,16.90
2018-06-12T23:05:01.742Z,16.90
2018-06-12T23:07:30.188Z,16.90
2018-06-12T23:09:58.629Z,16.90
2018-06-12T23:12:27.103Z,16.80
2018-06-12T23:14:56.482Z,16.80
2018-06-12T23:17:25.201Z,16.80
2018-06-12T23:20:04.877Z,16.80
2018-06-12T23:22:33.396Z,16.80
2018-06-12T23:25:02.112Z,16.70
2018-06-12T23:27:31.179Z,16.70
2018-06-12T23:29:59.687Z,16.70
2018-06-12T23:32:28.361Z,16.70
2018-06-12T23:34:57.077Z,16.60
2018-06-12T23:37:25.612Z,16.60
2018-06-12T23:39:54.102Z,16.60
2018-06-12T23:42:22.596Z,16.60
2018-06-12T23:44:51.144Z,16.50
2018-06-12T23:49:47.986Z,16.40
2018-06-12T23:52:16.457Z,16.30
2018-06-12T23:54:44.891Z,16.20
2018-06-12T23:57:13.646Z,16.20
2018-06-12T23:59:42.545Z,16.20
